createdAt,value
2023-02-04T00:00:12.005Z,-24.70
2023-02-04T00:02:42.585Z,-24.70
2023-02-04T00:05:13.834Z,-24.70
2023-02-04T00:07:44.310Z,-24.70
2023-02-04T00:10:14.536Z,-24.70
2023-02-04T00:12:44.624Z,-24.70
2023-02-04T00:15:16.524Z,-24.70
2023-02-04T00:17:46.559Z,-24.70
2023-02-04T00:20:16.735Z,-24.70
2023-02-04T00:22:46.862Z,-24.70
2023-02-04T00:25:17.866Z,-24.70
2023-02-04T00:27:48.003Z,-24.70
2023-02-04T00:30:20.034Z,-24.70
2023-02-04T00:32:50.228Z,-24.80
2023-02-04T00:35:20.632Z,-24.70
2023-02-04T00:37:50.690Z,-24.70
2023-02-04T00:40:21.410Z,-24.70
2023-02-04T00:42:51.453Z,-24.70
2023-02-04T00:45:23.343Z,-24.70
2023-02-04T00:47:53.361Z,-24.70
2023-02-04T00:50:23.526Z,-24.70
2023-02-04T00:52:53.570Z,-24.70
2023-02-04T00:55:23.888Z,-24.80
2023-02-04T00:57:54.169Z,-24.80
2023-02-04T01:00:26.612Z,-24.80
2023-02-04T01:02:56.973Z,-24.80
2023-02-04T01:05:27.199Z,-24.80
2023-02-04T01:07:57.631Z,-24.80
2023-02-04T01:10:28.144Z,-24.70
2023-02-04T01:12:58.654Z,-24.70
2023-02-04T01:15:30.423Z,-24.80
2023-02-04T01:18:00.493Z,-24.80
2023-02-04T01:20:31.196Z,-24.90
2023-02-04T01:23:01.498Z,-24.90
2023-02-04T01:25:31.965Z,-25.00
2023-02-04T01:28:02.316Z,-25.00
2023-02-04T01:30:34.355Z,-25.10
2023-02-04T01:33:04.456Z,-25.10
2023-02-04T01:35:34.605Z,-25.20
2023-02-04T01:38:04.757Z,-25.20
2023-02-04T01:43:09.298Z,-25.30
2023-02-04T01:45:40.136Z,-25.30
2023-02-04T01:48:10.881Z,-25.30
2023-02-04T01:50:41.225Z,-25.30
2023-02-04T01:53:11.717Z,-25.30
2023-02-04T01:55:41.891Z,-25.30
2023-02-04T01:58:16.435Z,-25.20
2023-02-04T02:00:47.397Z,-25.30
2023-02-04T02:03:17.612Z,-25.20
2023-02-04T02:05:50.458Z,-25.30
2023-02-04T02:08:21.241Z,-25.30
2023-02-04T02:10:52.359Z,-25.30
2023-02-04T02:13:24.425Z,-25.40
2023-02-04T02:15:54.522Z,-25.50
2023-02-04T02:18:25.898Z,-25.50
2023-02-04T02:20:56.769Z,-25.60
2023-02-04T02:23:31.134Z,-25.70
2023-02-04T02:26:03.208Z,-25.70
2023-02-04T02:28:33.692Z,-25.70
2023-02-04T02:31:03.929Z,-25.70
2023-02-04T02:33:34.233Z,-25.80
2023-02-04T02:36:04.907Z,-25.70
2023-02-04T02:38:35.312Z,-25.70
2023-02-04T02:41:10.995Z,-25.70
2023-02-04T02:43:41.849Z,-25.70
2023-02-04T02:46:12.581Z,-25.70
2023-02-04T02:48:42.779Z,-25.80
2023-02-04T02:51:12.856Z,-25.90
2023-02-04T02:56:20.880Z,-26.00
2023-02-04T02:58:50.956Z,-26.10
2023-02-04T03:01:21.569Z,-26.20
2023-02-04T03:03:54.399Z,-25.30
2023-02-04T03:06:29.025Z,-26.40
2023-02-04T03:08:59.898Z,-26.50
2023-02-04T03:11:33.458Z,-26.50
2023-02-04T03:16:17.452Z,-26.50
2023-02-04T03:18:47.652Z,-26.40
2023-02-04T03:21:17.857Z,-26.50
2023-02-04T03:23:48.097Z,-26.40
2023-02-04T03:26:18.652Z,-26.40
2023-02-04T03:28:49.169Z,-26.50
2023-02-04T03:33:55.354Z,-26.50
2023-02-04T03:41:19.870Z,-26.40
2023-02-04T03:43:49.940Z,-26.40
2023-02-04T03:46:20.437Z,-26.40
2023-02-04T03:48:50.700Z,-26.40
2023-02-04T03:51:20.865Z,-26.40
2023-02-04T03:53:50.934Z,-26.60
2023-02-04T03:56:22.947Z,-26.70
2023-02-04T03:58:53.013Z,-26.80
2023-02-04T04:01:23.156Z,-26.80
2023-02-04T04:03:53.376Z,-26.90
2023-02-04T04:06:23.733Z,-26.90
2023-02-04T04:08:53.833Z,-26.90
2023-02-04T04:11:25.828Z,-26.90
2023-02-04T04:13:55.908Z,-26.90
2023-02-04T04:16:26.053Z,-26.90
2023-02-04T04:18:56.094Z,-27.00
2023-02-04T04:21:26.433Z,-27.00
2023-02-04T04:23:56.549Z,-27.00
2023-02-04T04:26:28.261Z,-27.00
2023-02-04T04:28:58.356Z,-26.90
2023-02-04T04:31:28.662Z,-26.90
2023-02-04T04:33:58.767Z,-26.90
2023-02-04T04:36:28.904Z,-26.90
2023-02-04T04:39:00.176Z,-27.00
2023-02-04T04:41:31.918Z,-26.90
2023-02-04T04:44:02.175Z,-26.80
2023-02-04T04:46:32.540Z,-26.80
2023-02-04T04:49:02.716Z,-26.80
2023-02-04T04:51:33.310Z,-26.90
2023-02-04T04:54:03.367Z,-26.90
2023-02-04T04:56:35.082Z,-26.90
2023-02-04T04:59:05.602Z,-27.00
2023-02-04T05:01:35.855Z,-27.10
2023-02-04T05:04:06.176Z,-27.20
2023-02-04T05:06:36.542Z,-27.20
2023-02-04T05:09:06.893Z,-27.10
2023-02-04T05:11:38.951Z,-27.10
2023-02-04T05:14:09.072Z,-27.10
2023-02-04T05:16:39.316Z,-27.20
2023-02-04T05:19:09.755Z,-27.30
2023-02-04T05:21:39.948Z,-27.30
2023-02-04T05:24:10.096Z,-27.30
2023-02-04T05:26:42.176Z,-27.30
2023-02-04T05:29:12.480Z,-27.40
2023-02-04T05:31:42.652Z,-27.40
2023-02-04T05:34:12.798Z,-27.50
2023-02-04T05:36:42.856Z,-27.50
2023-02-04T05:39:13.277Z,-27.50
2023-02-04T05:41:45.024Z,-27.60
2023-02-04T05:44:15.244Z,-27.60
2023-02-04T05:46:45.387Z,-27.70
2023-02-04T05:49:15.601Z,-27.70
2023-02-04T05:51:45.701Z,-27.70
2023-02-04T05:54:19.977Z,-27.70
2023-02-04T05:56:52.427Z,-27.60
2023-02-04T05:59:22.430Z,-27.60
2023-02-04T06:01:52.558Z,-27.60
2023-02-04T06:04:22.704Z,-27.40
2023-02-04T06:06:52.827Z,-27.30
2023-02-04T06:09:22.931Z,-27.40
2023-02-04T06:11:54.646Z,-27.40
2023-02-04T06:14:24.698Z,-27.50
2023-02-04T06:16:55.010Z,-27.50
2023-02-04T06:19:25.123Z,-27.50
2023-02-04T06:21:55.369Z,-27.50
2023-02-04T06:24:25.458Z,-27.60
2023-02-04T06:26:57.653Z,-27.60
2023-02-04T06:29:27.752Z,-27.70
2023-02-04T06:31:58.125Z,-27.80
2023-02-04T06:34:28.658Z,-27.80
2023-02-04T06:36:58.772Z,-27.80
2023-02-04T06:41:39.233Z,-27.80
2023-02-04T06:44:09.729Z,-27.80
2023-02-04T06:46:39.962Z,-27.90
2023-02-04T06:49:10.461Z,-28.00
2023-02-04T06:51:40.560Z,-28.00
2023-02-04T06:54:10.866Z,-28.10
2023-02-04T06:56:44.191Z,-28.10
2023-02-04T06:59:14.344Z,-28.10
2023-02-04T07:01:44.707Z,-28.10
2023-02-04T07:04:14.842Z,-28.10
2023-02-04T07:06:45.062Z,-28.10
2023-02-04T07:11:26.440Z,-28.00
2023-02-04T07:13:56.504Z,-28.00
2023-02-04T07:16:26.589Z,-28.00
2023-02-04T07:18:56.845Z,-27.90
2023-02-04T07:21:27.799Z,-27.90
2023-02-04T07:23:57.889Z,-27.90
2023-02-04T07:26:30.066Z,-28.00
2023-02-04T07:29:00.399Z,-28.00
2023-02-04T07:31:30.755Z,-28.10
2023-02-04T07:34:01.117Z,-28.00
2023-02-04T07:36:31.287Z,-28.00
2023-02-04T07:39:01.495Z,-28.00
2023-02-04T07:41:33.206Z,-28.10
2023-02-04T07:44:03.298Z,-28.10
2023-02-04T07:46:33.767Z,-28.10
2023-02-04T07:49:03.895Z,-28.00
2023-02-04T07:51:34.024Z,-28.00
2023-02-04T07:54:04.289Z,-28.00
2023-02-04T07:56:35.980Z,-27.90
2023-02-04T07:59:06.455Z,-27.90
2023-02-04T08:01:37.282Z,-27.80
2023-02-04T08:04:07.874Z,-27.80
2023-02-04T08:06:37.972Z,-27.70
2023-02-04T08:09:08.470Z,-27.80
2023-02-04T08:11:40.420Z,-27.80
2023-02-04T08:14:10.701Z,-27.90
2023-02-04T08:16:41.101Z,-28.00
2023-02-04T08:19:11.329Z,-28.10
2023-02-04T08:21:41.393Z,-28.30
2023-02-04T08:24:11.504Z,-28.40
2023-02-04T08:26:43.987Z,-28.50
2023-02-04T08:29:14.252Z,-28.50
2023-02-04T08:31:44.481Z,-28.60
2023-02-04T08:34:14.574Z,-28.60
2023-02-04T08:36:45.871Z,-28.60
2023-02-04T08:39:15.972Z,-28.60
2023-02-04T08:41:48.662Z,-28.60
2023-02-04T08:44:18.740Z,-28.50
2023-02-04T08:46:49.087Z,-28.50
2023-02-04T08:49:19.439Z,-28.50
2023-02-04T08:51:49.634Z,-28.60
2023-02-04T08:55:16.566Z,-28.80
2023-02-04T08:57:46.732Z,-28.90
2023-02-04T09:00:17.948Z,-29.00
2023-02-04T09:02:48.164Z,-29.00
2023-02-04T09:05:18.419Z,-28.80
2023-02-04T09:07:48.571Z,-29.00
2023-02-04T09:10:21.055Z,-29.00
2023-02-04T09:12:56.690Z,-29.10
2023-02-04T09:15:27.419Z,-28.80
2023-02-04T09:18:05.176Z,-28.80
2023-02-04T09:20:37.764Z,-29.10
2023-02-04T09:23:09.659Z,-28.70
2023-02-04T09:25:41.511Z,-29.20
2023-02-04T09:28:13.377Z,-29.20
2023-02-04T09:30:44.585Z,-28.90
2023-02-04T09:33:15.648Z,-29.30
2023-02-04T09:40:57.652Z,-29.20
2023-02-04T09:43:29.020Z,-29.10
2023-02-04T09:45:59.821Z,-29.10
2023-02-04T09:48:30.036Z,-29.10
2023-02-04T09:51:07.808Z,-29.20
2023-02-04T09:53:39.073Z,-29.20
2023-02-04T09:56:14.869Z,-29.10
2023-02-04T09:58:45.667Z,-29.00
2023-02-04T10:01:18.760Z,-29.00
2023-02-04T10:03:51.985Z,-29.00
2023-02-04T10:06:24.203Z,-29.00
2023-02-04T10:08:54.973Z,-29.00
2023-02-04T10:11:28.847Z,-29.00
2023-02-04T10:13:59.943Z,-28.80
2023-02-04T10:16:33.293Z,-29.10
2023-02-04T10:19:06.046Z,-29.20
2023-02-04T10:21:38.167Z,-29.20
2023-02-04T10:24:13.425Z,-29.10
2023-02-04T10:26:45.170Z,-29.10
2023-02-04T10:29:19.421Z,-29.10
2023-02-04T10:31:51.696Z,-29.20
2023-02-04T10:34:23.459Z,-29.10
2023-02-04T10:36:58.239Z,-29.40
2023-02-04T10:39:30.083Z,-29.30
2023-02-04T10:42:03.201Z,-29.20
2023-02-04T10:44:34.755Z,-29.20
2023-02-04T10:47:06.576Z,-29.20
2023-02-04T10:49:37.176Z,-29.20
2023-02-04T10:52:19.093Z,-29.20
2023-02-04T10:54:49.803Z,-29.10
2023-02-04T10:57:24.608Z,-29.00
2023-02-04T10:59:57.925Z,-28.90
2023-02-04T11:02:44.451Z,-28.70
2023-02-04T11:05:18.112Z,-28.80
2023-02-04T11:07:49.153Z,-28.70
2023-02-04T11:10:21.499Z,-28.90
2023-02-04T11:13:04.320Z,-28.80
2023-02-04T11:15:49.170Z,-28.90
2023-02-04T11:18:32.203Z,-28.70
2023-02-04T11:21:02.622Z,-28.90
2023-02-04T11:23:38.338Z,-28.90
2023-02-04T11:26:11.601Z,-28.90
2023-02-04T11:29:10.464Z,-28.70
2023-02-04T11:32:00.591Z,-28.70
2023-02-04T11:34:50.185Z,-28.70
2023-02-04T11:37:37.565Z,-28.70
2023-02-04T11:40:30.755Z,-28.80
2023-02-04T11:43:03.104Z,-28.90
2023-02-04T11:45:37.321Z,-28.90
2023-02-04T11:48:14.874Z,-29.10
2023-02-04T11:50:46.015Z,-28.80
2023-02-04T11:53:16.139Z,-29.40
2023-02-04T11:55:49.909Z,-29.10
2023-02-04T11:58:26.778Z,-28.70
2023-02-04T12:00:58.638Z,-29.10
2023-02-04T12:03:31.138Z,-29.10
2023-02-04T12:06:02.111Z,-29.10
2023-02-04T12:08:37.344Z,-28.70
2023-02-04T12:11:12.736Z,-28.90
2023-02-04T12:13:53.404Z,-28.80
2023-02-04T12:16:25.803Z,-28.80
2023-02-04T12:18:56.173Z,-28.70
2023-02-04T12:21:26.264Z,-28.80
2023-02-04T12:23:56.467Z,-28.80
2023-02-04T12:26:26.662Z,-28.50
2023-02-04T12:28:56.762Z,-28.90
2023-02-04T12:31:28.728Z,-28.90
2023-02-04T12:33:58.882Z,-28.90
2023-02-04T12:36:30.548Z,-28.90
2023-02-04T12:39:01.320Z,-28.80
2023-02-04T12:41:31.503Z,-28.80
2023-02-04T12:44:02.012Z,-28.80
2023-02-04T12:46:34.058Z,-28.70
2023-02-04T12:49:04.221Z,-28.70
2023-02-04T12:51:34.497Z,-28.70
2023-02-04T12:54:04.574Z,-28.70
2023-02-04T12:56:34.714Z,-28.60
2023-02-04T12:59:04.840Z,-28.50
2023-02-04T13:01:36.575Z,-28.50
2023-02-04T13:04:06.933Z,-28.40
2023-02-04T13:06:37.379Z,-28.30
2023-02-04T13:09:07.463Z,-28.30
2023-02-04T13:11:37.603Z,-28.20
2023-02-04T13:14:07.700Z,-28.10
2023-02-04T13:16:39.706Z,-28.00
2023-02-04T13:19:09.748Z,-27.90
2023-02-04T13:21:39.866Z,-27.80
2023-02-04T13:24:10.383Z,-27.70
2023-02-04T13:26:40.496Z,-27.60
2023-02-04T13:29:10.613Z,-27.60
2023-02-04T13:31:42.559Z,-27.50
2023-02-04T13:34:12.885Z,-27.50
2023-02-04T13:36:44.306Z,-27.40
2023-02-04T13:39:15.123Z,-27.30
2023-02-04T13:41:45.250Z,-27.20
2023-02-04T13:44:15.549Z,-27.20
2023-02-04T13:46:47.343Z,-27.10
2023-02-04T13:49:17.405Z,-27.00
2023-02-04T13:51:47.538Z,-27.00
2023-02-04T13:54:17.658Z,-27.10
2023-02-04T13:56:47.914Z,-27.10
2023-02-04T13:59:19.686Z,-27.00
2023-02-04T14:01:52.582Z,-26.90
2023-02-04T14:04:22.699Z,-26.90
2023-02-04T14:06:53.237Z,-26.90
2023-02-04T14:09:23.729Z,-27.00
2023-02-04T14:11:54.058Z,-26.90
2023-02-04T14:14:24.167Z,-26.70
2023-02-04T14:16:56.169Z,-26.60
2023-02-04T14:19:28.256Z,-26.40
2023-02-04T14:21:59.165Z,-26.30
2023-02-04T14:24:29.653Z,-26.30
2023-02-04T14:26:59.765Z,-26.20
2023-02-04T14:29:29.812Z,-26.10
2023-02-04T14:32:01.646Z,-26.10
2023-02-04T14:34:31.776Z,-26.00
2023-02-04T14:37:02.032Z,-25.90
2023-02-04T14:39:32.260Z,-25.80
2023-02-04T14:42:05.274Z,-25.80
2023-02-04T14:44:35.586Z,-25.60
2023-02-04T14:47:07.611Z,-25.50
2023-02-04T14:49:38.665Z,-25.40
2023-02-04T14:52:10.440Z,-25.50
2023-02-04T14:54:40.577Z,-25.70
2023-02-04T14:57:12.602Z,-25.60
2023-02-04T14:59:42.700Z,-25.50
2023-02-04T15:02:17.057Z,-25.40
2023-02-04T15:04:47.295Z,-25.30
2023-02-04T15:07:17.443Z,-25.20
2023-02-04T15:09:47.503Z,-25.20
2023-02-04T15:12:17.582Z,-25.10
2023-02-04T15:14:47.680Z,-25.00
2023-02-04T15:17:19.520Z,-24.80
2023-02-04T15:19:49.836Z,-24.60
2023-02-04T15:22:19.989Z,-24.30
2023-02-04T15:24:50.724Z,-24.00
2023-02-04T15:27:20.947Z,-23.70
2023-02-04T15:29:50.943Z,-23.40
2023-02-04T15:32:22.752Z,-23.20
2023-02-04T15:34:53.017Z,-23.10
2023-02-04T15:37:23.678Z,-22.90
2023-02-04T15:39:55.321Z,-22.90
2023-02-04T15:42:26.860Z,-23.00
2023-02-04T15:44:57.237Z,-22.80
2023-02-04T15:47:28.964Z,-22.50
2023-02-04T15:49:59.015Z,-22.20
2023-02-04T15:52:29.423Z,-22.00
2023-02-04T15:54:59.680Z,-21.60
2023-02-04T15:57:29.785Z,-21.20
2023-02-04T16:00:00.176Z,-21.00
2023-02-04T16:02:32.353Z,-20.90
2023-02-04T16:05:02.615Z,-21.00
2023-02-04T16:07:32.737Z,-20.90
2023-02-04T16:10:02.780Z,-20.70
2023-02-04T16:12:32.895Z,-20.80
2023-02-04T16:15:02.944Z,-20.80
2023-02-04T16:17:35.205Z,-20.70
2023-02-04T16:20:05.729Z,-20.80
2023-02-04T16:22:36.217Z,-20.80
2023-02-04T16:25:07.397Z,-20.80
2023-02-04T16:27:37.708Z,-20.70
2023-02-04T16:30:08.719Z,-20.40
2023-02-04T16:32:40.416Z,-20.30
2023-02-04T16:35:11.030Z,-20.50
2023-02-04T16:37:41.478Z,-20.50
2023-02-04T16:40:14.752Z,-20.30
2023-02-04T16:42:44.848Z,-20.10
2023-02-04T16:45:15.169Z,-20.00
2023-02-04T16:47:46.869Z,-19.90
2023-02-04T16:50:17.219Z,-19.80
2023-02-04T16:52:47.334Z,-19.20
2023-02-04T16:55:17.629Z,-19.00
2023-02-04T16:57:47.810Z,-18.80
2023-02-04T17:00:18.461Z,-18.60
2023-02-04T17:02:50.682Z,-18.50
2023-02-04T17:05:20.851Z,-18.40
2023-02-04T17:07:51.191Z,-18.50
2023-02-04T17:10:41.921Z,-18.50
2023-02-04T17:13:12.010Z,-18.30
2023-02-04T17:15:42.154Z,-18.50
2023-02-04T17:18:13.882Z,-18.50
2023-02-04T17:20:44.125Z,-18.70
2023-02-04T17:23:14.236Z,-18.50
2023-02-04T17:25:44.348Z,-18.50
2023-02-04T17:28:15.121Z,-18.30
2023-02-04T17:30:45.297Z,-18.20
2023-02-04T17:33:17.278Z,-18.60
2023-02-04T17:35:47.839Z,-18.70
2023-02-04T17:38:18.237Z,-18.40
2023-02-04T17:40:48.812Z,-18.00
2023-02-04T17:43:19.070Z,-18.10
2023-02-04T17:45:49.464Z,-17.90
2023-02-04T17:48:21.653Z,-17.60
2023-02-04T17:50:51.698Z,-17.60
2023-02-04T17:53:22.400Z,-17.40
2023-02-04T17:55:52.873Z,-17.30
2023-02-04T17:58:26.236Z,-16.90
2023-02-04T18:00:58.296Z,-16.60
2023-02-04T18:03:31.664Z,-16.70
2023-02-04T18:06:18.702Z,-17.10
2023-02-04T18:08:48.885Z,-17.50
2023-02-04T18:11:22.373Z,-17.30
2023-02-04T18:13:53.036Z,-17.10
2023-02-04T18:16:27.215Z,-17.00
2023-02-04T18:19:01.701Z,-17.20
2023-02-04T18:21:34.450Z,-17.50
2023-02-04T18:24:18.708Z,-17.50
2023-02-04T18:26:50.821Z,-17.00
2023-02-04T18:29:36.236Z,-16.50
2023-02-04T18:32:13.089Z,-16.60
2023-02-04T18:34:47.462Z,-16.80
2023-02-04T18:37:32.810Z,-16.90
2023-02-04T18:40:31.287Z,-17.00
2023-02-04T18:43:18.886Z,-17.10
2023-02-04T18:45:48.995Z,-17.20
2023-02-04T18:48:57.667Z,-17.30
2023-02-04T18:51:32.569Z,-17.40
2023-02-04T18:54:20.514Z,-17.60
2023-02-04T18:56:51.565Z,-17.80
2023-02-04T18:59:22.150Z,-17.80
2023-02-04T19:01:53.205Z,-17.80
2023-02-04T19:04:26.027Z,-17.90
2023-02-04T19:07:00.334Z,-17.80
2023-02-04T19:09:32.955Z,-17.60
2023-02-04T19:12:20.247Z,-17.70
2023-02-04T19:14:50.515Z,-17.90
2023-02-04T19:17:25.835Z,-17.90
2023-02-04T19:20:00.815Z,-18.00
2023-02-04T19:22:44.330Z,-17.90
2023-02-04T19:25:31.547Z,-17.90
2023-02-04T19:28:03.062Z,-18.00
2023-02-04T19:30:48.470Z,-18.20
2023-02-04T19:33:23.710Z,-18.20
2023-02-04T19:35:53.738Z,-18.20
2023-02-04T19:38:40.185Z,-18.20
2023-02-04T19:41:30.172Z,-18.30
2023-02-04T19:44:27.834Z,-18.50
2023-02-04T19:46:59.746Z,-18.50
2023-02-04T19:49:36.055Z,-18.20
2023-02-04T19:52:21.446Z,-18.00
2023-02-04T19:54:53.196Z,-17.70
2023-02-04T19:57:27.223Z,-17.40
2023-02-04T19:59:59.136Z,-17.30
2023-02-04T20:02:35.977Z,-17.20
2023-02-04T20:05:18.318Z,-16.90
2023-02-04T20:07:48.457Z,-17.00
2023-02-04T20:10:26.568Z,-17.10
2023-02-04T20:13:01.146Z,-17.30
2023-02-04T20:15:32.460Z,-17.30
2023-02-04T20:18:02.867Z,-17.20
2023-02-04T20:20:34.076Z,-17.10
2023-02-04T20:23:04.808Z,-17.10
2023-02-04T20:25:45.783Z,-16.90
2023-02-04T20:28:37.543Z,-17.00
2023-02-04T20:31:27.158Z,-17.20
2023-02-04T20:33:59.896Z,-17.30
2023-02-04T20:36:42.895Z,-17.40
2023-02-04T20:39:37.733Z,-17.30
2023-02-04T20:42:29.250Z,-17.10
2023-02-04T20:45:12.186Z,-17.10
2023-02-04T20:47:42.684Z,-17.30
2023-02-04T20:50:41.997Z,-17.50
2023-02-04T20:53:23.288Z,-17.40
2023-02-04T20:55:56.042Z,-17.50
2023-02-04T20:58:30.355Z,-17.50
2023-02-04T21:01:00.603Z,-17.50
2023-02-04T21:03:32.551Z,-17.50
2023-02-04T21:06:03.729Z,-17.60
2023-02-04T21:08:39.506Z,-17.60
2023-02-04T21:11:10.011Z,-17.60
2023-02-04T21:13:41.749Z,-17.70
2023-02-04T21:16:12.073Z,-17.70
2023-02-04T21:18:42.355Z,-17.70
2023-02-04T21:21:12.805Z,-17.70
2023-02-04T21:23:43.577Z,-17.90
2023-02-04T21:26:13.724Z,-18.00
2023-02-04T21:28:45.511Z,-18.00
2023-02-04T21:31:15.723Z,-18.00
2023-02-04T21:33:46.280Z,-18.20
2023-02-04T21:36:16.379Z,-18.30
2023-02-04T21:38:47.762Z,-18.30
2023-02-04T21:41:17.997Z,-18.40
2023-02-04T21:43:50.205Z,-18.50
2023-02-04T21:46:21.088Z,-18.50
2023-02-04T21:48:51.454Z,-18.60
2023-02-04T21:51:21.531Z,-18.70
2023-02-04T21:53:51.970Z,-18.90
2023-02-04T21:56:22.257Z,-18.90
2023-02-04T21:58:54.984Z,-18.90
2023-02-04T22:01:25.165Z,-19.00
2023-02-04T22:03:55.407Z,-19.10
2023-02-04T22:06:25.587Z,-19.20
2023-02-04T22:08:55.716Z,-19.20
2023-02-04T22:11:25.868Z,-19.30
2023-02-04T22:14:14.584Z,-19.40
2023-02-04T22:16:45.551Z,-19.40
2023-02-04T22:19:15.710Z,-19.40
2023-02-04T22:21:45.864Z,-19.40
2023-02-04T22:24:16.002Z,-19.40
2023-02-04T22:26:46.292Z,-19.40
2023-02-04T22:29:22.349Z,-19.50
2023-02-04T22:31:52.542Z,-19.50
2023-02-04T22:34:22.934Z,-19.50
2023-02-04T22:36:53.211Z,-19.50
2023-02-04T22:39:23.570Z,-19.40
2023-02-04T22:41:53.626Z,-19.50
2023-02-04T22:44:25.368Z,-19.40
2023-02-04T22:46:55.633Z,-19.40
2023-02-04T22:49:25.837Z,-19.40
2023-02-04T22:51:55.880Z,-19.40
2023-02-04T22:54:26.028Z,-19.40
2023-02-04T22:56:58.424Z,-19.50
2023-02-04T22:59:30.701Z,-19.50
2023-02-04T23:02:01.248Z,-19.60
2023-02-04T23:04:31.402Z,-19.50
2023-02-04T23:07:05.100Z,-19.50
2023-02-04T23:09:35.629Z,-19.50
2023-02-04T23:12:13.329Z,-19.50
2023-02-04T23:14:46.525Z,-19.50
2023-02-04T23:17:18.283Z,-19.50
2023-02-04T23:19:48.602Z,-19.60
2023-02-04T23:22:19.244Z,-19.50
2023-02-04T23:24:50.220Z,-19.60
2023-02-04T23:27:20.296Z,-19.60
2023-02-04T23:29:52.049Z,-19.60
2023-02-04T23:32:22.121Z,-19.60
2023-02-04T23:34:52.260Z,-19.60
2023-02-04T23:37:22.392Z,-19.60
2023-02-04T23:39:52.781Z,-19.60
2023-02-04T23:42:22.858Z,-19.60
2023-02-04T23:44:54.695Z,-19.60
2023-02-04T23:47:24.820Z,-19.60
2023-02-04T23:49:55.130Z,-19.60
2023-02-04T23:52:25.223Z,-19.50
2023-02-04T23:54:55.307Z,-19.50
2023-02-04T23:57:25.587Z,-19.40
2023-02-04T23:59:57.329Z,-19.30
